Time;durP1;ratioP1;P1;durP2;ratioP2;P2;SDS_P1;SDS_P2;PMS_P1;PMS_P2;Temp;Humidity;BMP_temperature;BMP_pressure;BME280_temperature;BME280_humidity;BME280_pressure;Samples;Min_cycle;Max_cycle;Signal;HPM_P1;HPM_P2
2023/03/17 00:01:59;;;;;;;5.30;3.00;;;;;;;6.63;100.00;100725.59;5073640;28;20040;-60
2023/03/17 00:04:28;;;;;;;7.15;3.22;;;;;;;6.82;100.00;100713.28;5074634;28;20105;-60
2023/03/17 00:06:56;;;;;;;7.13;3.30;;;;;;;6.76;100.00;100719.66;5074690;28;20110;-60
2023/03/17 00:09:25;;;;;;;8.95;3.08;;;;;;;6.81;100.00;100708.97;5074320;28;20505;-60
2023/03/17 00:11:54;;;;;;;6.57;2.72;;;;;;;6.88;100.00;100706.88;5074683;28;20040;-60
2023/03/17 00:14:22;;;;;;;6.60;3.03;;;;;;;6.74;100.00;100716.25;5074388;28;20053;-60
2023/03/17 00:16:52;;;;;;;5.97;3.10;;;;;;;6.77;100.00;100718.72;5073056;28;20048;-60
2023/03/17 00:19:28;;;;;;;5.72;2.95;;;;;;;6.73;100.00;100721.56;5074460;28;20106;-60
2023/03/17 00:21:57;;;;;;;5.05;2.72;;;;;;;6.64;100.00;100735.09;5074558;28;20028;-60
2023/03/17 00:24:26;;;;;;;7.57;2.83;;;;;;;6.54;100.00;100738.16;5072250;28;20044;-61
2023/03/17 00:26:54;;;;;;;6.60;2.95;;;;;;;6.48;100.00;100730.66;5070961;28;20514;-60
2023/03/17 00:29:24;;;;;;;6.45;3.13;;;;;;;6.48;100.00;100728.03;5069653;28;20119;-61
2023/03/17 00:31:53;;;;;;;6.13;2.75;;;;;;;6.56;100.00;100717.22;5070212;28;20117;-60
2023/03/17 00:34:23;;;;;;;9.75;3.17;;;;;;;6.45;100.00;100716.88;5074196;28;20132;-60
2023/03/17 00:36:52;;;;;;;7.25;2.83;;;;;;;6.39;100.00;100707.59;5071906;28;20098;-60
2023/03/17 00:39:20;;;;;;;6.53;3.30;;;;;;;6.33;100.00;100700.06;5069778;28;20060;-60
2023/03/17 00:41:49;;;;;;;7.22;2.70;;;;;;;6.34;100.00;100704.34;5070079;28;20387;-61
2023/03/17 00:44:17;;;;;;;6.05;2.90;;;;;;;6.28;100.00;100707.28;5070499;28;20056;-61
2023/03/17 00:46:46;;;;;;;6.70;3.10;;;;;;;6.24;100.00;100707.44;5071687;28;20137;-60
2023/03/17 00:49:17;;;;;;;7.80;3.22;;;;;;;6.22;100.00;100698.81;5069102;28;20071;-60
2023/03/17 00:51:46;;;;;;;6.57;3.60;;;;;;;6.21;100.00;100699.75;5072643;28;20052;-60
2023/03/17 00:54:16;;;;;;;8.18;3.03;;;;;;;6.17;100.00;100695.59;5073781;28;20052;-61
2023/03/17 00:56:45;;;;;;;6.43;2.75;;;;;;;6.11;100.00;100705.50;5074039;28;20113;-60
2023/03/17 00:59:20;;;;;;;7.40;3.20;;;;;;;6.07;100.00;100703.03;5071599;28;20177;-60
2023/03/17 01:01:49;;;;;;;7.63;2.97;;;;;;;6.00;100.00;100704.25;5068847;28;20057;-60
2023/03/17 01:04:18;;;;;;;6.13;3.03;;;;;;;5.92;100.00;100707.19;5069816;28;20049;-60
2023/03/17 01:06:50;;;;;;;5.90;3.20;;;;;;;5.91;100.00;100694.22;5069770;28;20052;-60
2023/03/17 01:09:24;;;;;;;6.55;3.25;;;;;;;5.88;100.00;100684.78;5068901;28;20059;-60
2023/03/17 01:11:53;;;;;;;6.43;3.13;;;;;;;5.83;100.00;100684.13;5070945;28;20488;-60
2023/03/17 01:14:23;;;;;;;6.30;2.67;;;;;;;5.79;100.00;100676.53;5073424;28;20076;-59
2023/03/17 01:16:53;;;;;;;5.97;2.90;;;;;;;5.76;100.00;100674.91;5073308;28;20105;-59
2023/03/17 01:19:22;;;;;;;6.35;2.83;;;;;;;5.73;100.00;100678.50;5073539;28;20381;-49
2023/03/17 01:21:52;;;;;;;7.65;3.10;;;;;;;5.68;100.00;100682.25;5072999;28;20048;-51
2023/03/17 01:24:20;;;;;;;7.57;2.90;;;;;;;5.62;100.00;100675.56;5070844;28;20515;-49
2023/03/17 01:26:49;;;;;;;7.38;3.33;;;;;;;5.58;100.00;100668.81;5068685;28;20052;-51
2023/03/17 01:29:18;;;;;;;7.88;3.20;;;;;;;5.51;100.00;100675.25;5068074;28;20450;-50
2023/03/17 01:31:46;;;;;;;5.95;3.05;;;;;;;5.54;100.00;100678.53;5071085;28;20098;-51
2023/03/17 01:34:15;;;;;;;6.13;3.00;;;;;;;5.53;100.00;100674.22;5073223;28;20037;-48
2023/03/17 01:36:43;;;;;;;6.22;3.25;;;;;;;5.49;100.00;100680.50;5073134;28;20050;-49
2023/03/17 01:39:14;;;;;;;6.65;3.22;;;;;;;5.39;100.00;100676.66;5072892;28;20054;-50
2023/03/17 01:41:44;;;;;;;7.47;3.40;;;;;;;5.32;100.00;100673.47;5069833;28;20044;-48
2023/03/17 01:44:17;;;;;;;7.95;3.67;;;;;;;5.33;100.00;100676.91;5068141;28;20391;-51
2023/03/17 01:46:46;;;;;;;7.43;3.10;;;;;;;5.28;100.00;100671.94;5070705;28;20132;-50
2023/03/17 01:49:19;;;;;;;8.98;3.28;;;;;;;5.23;100.00;100669.50;5068988;28;20044;-52
2023/03/17 01:51:56;;;;;;;7.07;3.40;;;;;;;5.34;100.00;100665.56;5070896;28;20044;-50
2023/03/17 01:54:30;;;;;;;7.55;3.58;;;;;;;5.30;100.00;100658.81;5072573;28;20055;-51
2023/03/17 01:57:04;;;;;;;8.25;3.38;;;;;;;5.35;100.00;100659.44;5068618;28;20040;-52
2023/03/17 01:59:38;;;;;;;8.60;3.88;;;;;;;5.42;100.00;100655.63;5068884;28;20423;-48
2023/03/17 02:02:11;;;;;;;6.55;3.20;;;;;;;5.39;100.00;100654.00;5072296;28;20488;-50
2023/03/17 02:04:39;;;;;;;7.07;3.50;;;;;;;5.34;100.00;100644.72;5072414;28;20076;-51
2023/03/17 02:07:08;;;;;;;7.07;3.78;;;;;;;5.28;100.00;100652.84;5072163;28;20131;-50
2023/03/17 02:09:38;;;;;;;7.15;3.70;;;;;;;5.23;100.00;100648.66;5071150;28;20067;-51
2023/03/17 02:12:10;;;;;;;7.05;3.35;;;;;;;5.18;100.00;100653.25;5072419;28;20091;-51
2023/03/17 02:14:40;;;;;;;7.87;3.60;;;;;;;5.17;100.00;100640.28;5072395;28;20040;-52
2023/03/17 02:17:09;;;;;;;6.90;3.35;;;;;;;5.14;100.00;100632.59;5072516;28;20062;-53
2023/03/17 02:19:37;;;;;;;8.50;3.70;;;;;;;5.08;100.00;100633.72;5072060;28;20048;-53
2023/03/17 02:22:08;;;;;;;7.93;3.78;;;;;;;5.04;100.00;100637.38;5070494;28;20036;-51
2023/03/17 02:24:40;;;;;;;9.35;3.70;;;;;;;5.00;100.00;100631.44;5068686;28;20052;-52
2023/03/17 02:27:13;;;;;;;8.23;3.58;;;;;;;4.96;100.00;100637.72;5067786;28;20111;-53
2023/03/17 02:29:45;;;;;;;7.63;3.35;;;;;;;4.91;100.00;100634.50;5068205;28;20045;-52
2023/03/17 02:32:17;;;;;;;6.82;3.45;;;;;;;4.90;100.00;100633.63;5067792;28;20055;-47
2023/03/17 02:34:46;;;;;;;8.50;3.97;;;;;;;4.85;100.00;100634.75;5072090;28;20044;-49
2023/03/17 02:37:17;;;;;;;7.18;3.00;;;;;;;4.76;100.00;100633.41;5072241;28;20040;-48
2023/03/17 02:39:46;;;;;;;6.30;3.15;;;;;;;4.69;100.00;100621.53;5072305;28;20056;-49
2023/03/17 02:42:14;;;;;;;7.03;3.40;;;;;;;4.68;100.00;100630.31;5072086;28;20403;-49
2023/03/17 02:44:43;;;;;;;7.97;3.35;;;;;;;4.65;100.00;100633.00;5072141;28;20071;-50
2023/03/17 02:47:13;;;;;;;7.80;4.13;;;;;;;4.60;100.00;100624.56;5072259;28;20080;-52
2023/03/17 02:49:42;;;;;;;9.15;3.95;;;;;;;4.55;100.00;100622.16;5071946;28;20071;-52
2023/03/17 02:52:12;;;;;;;9.07;4.03;;;;;;;4.51;100.00;100624.06;5069581;28;20049;-51
2023/03/17 02:54:42;;;;;;;7.93;3.85;;;;;;;4.49;100.00;100623.28;5067818;28;20823;-51
2023/03/17 02:57:10;;;;;;;9.90;4.57;;;;;;;4.44;100.00;100627.81;5067346;28;20436;-51
2023/03/17 02:59:39;;;;;;;8.30;3.78;;;;;;;4.41;100.00;100622.75;5068448;28;20518;-52
2023/03/17 03:02:07;;;;;;;8.00;4.00;;;;;;;4.42;100.00;100628.81;5067438;28;20450;-50
2023/03/17 03:04:36;;;;;;;9.07;4.47;;;;;;;4.40;100.00;100616.72;5068544;28;20037;-51
2023/03/17 03:07:05;;;;;;;8.05;4.40;;;;;;;4.37;100.00;100621.19;5067502;28;20533;-52
2023/03/17 03:09:34;;;;;;;7.57;3.80;;;;;;;4.34;100.00;100618.72;5071207;28;20068;-52
2023/03/17 03:12:04;;;;;;;8.63;3.88;;;;;;;4.26;100.00;100619.03;5072165;28;20536;-50
2023/03/17 03:14:33;;;;;;;8.05;4.03;;;;;;;4.25;100.00;100619.13;5071760;28;20064;-53
2023/03/17 03:17:01;;;;;;;7.70;4.07;;;;;;;4.20;100.00;100625.38;5072050;28;20048;-50
2023/03/17 03:19:30;;;;;;;6.72;4.00;;;;;;;4.21;100.00;100626.19;5071630;28;20075;-48
2023/03/17 03:21:58;;;;;;;8.82;4.20;;;;;;;4.20;100.00;100614.13;5068185;28;20690;-51
2023/03/17 03:24:27;;;;;;;7.82;4.10;;;;;;;4.20;100.00;100614.13;5067299;28;20044;-52
2023/03/17 03:26:55;;;;;;;8.32;4.20;;;;;;;4.15;100.00;100610.84;5068635;28;20056;-51
2023/03/17 03:29:25;;;;;;;8.57;4.32;;;;;;;4.11;100.00;100610.13;5068360;28;20545;-53
2023/03/17 03:31:54;;;;;;;7.47;4.00;;;;;;;4.10;100.00;100605.00;5066837;28;20052;-50
2023/03/17 03:34:22;;;;;;;7.25;3.80;;;;;;;4.14;100.00;100611.75;5072872;28;20467;-52
2023/03/17 03:36:51;;;;;;;7.88;4.03;;;;;;;4.11;100.00;100615.34;5071543;28;20036;-53
2023/03/17 03:39:19;;;;;;;8.38;4.10;;;;;;;4.09;100.00;100624.97;5071788;28;20045;-51
2023/03/17 03:41:47;;;;;;;9.90;5.25;;;;;;;4.06;100.00;100619.88;5075446;28;20043;-51
2023/03/17 03:44:16;;;;;;;8.13;4.15;;;;;;;4.04;100.00;100621.72;5072645;28;20150;-50
2023/03/17 03:46:45;;;;;;;7.47;4.20;;;;;;;4.04;100.00;100630.34;5070539;28;20094;-51
2023/03/17 03:49:14;;;;;;;9.13;4.53;;;;;;;4.05;100.00;100626.00;5074572;28;20044;-49
2023/03/17 03:51:42;;;;;;;8.77;4.25;;;;;;;4.03;100.00;100625.22;5075057;28;20044;-52
2023/03/17 03:54:11;;;;;;;8.65;4.40;;;;;;;4.04;100.00;100622.53;5074976;28;20043;-49
2023/03/17 03:56:42;;;;;;;8.15;3.78;;;;;;;4.06;100.00;100625.09;5072835;28;20056;-52
2023/03/17 03:59:10;;;;;;;7.55;3.97;;;;;;;4.06;100.00;100630.28;5070398;28;20045;-52
2023/03/17 04:01:40;;;;;;;8.43;4.40;;;;;;;4.00;100.00;100638.38;5069199;28;20127;-52
2023/03/17 04:04:10;;;;;;;8.45;4.32;;;;;;;3.97;100.00;100628.91;5070745;28;20040;-52
2023/03/17 04:06:38;;;;;;;7.43;4.10;;;;;;;3.97;100.00;100625.47;5072398;28;20495;-49
2023/03/17 04:09:09;;;;;;;9.43;4.28;;;;;;;3.96;100.00;100621.19;5074623;28;20040;-50
2023/03/17 04:11:38;;;;;;;8.43;4.35;;;;;;;3.94;100.00;100628.19;5074892;28;20049;-49
2023/03/17 04:14:06;;;;;;;7.25;4.07;;;;;;;3.94;100.00;100633.41;5074588;28;20044;-52
2023/03/17 04:16:34;;;;;;;10.18;4.47;;;;;;;3.90;100.00;100630.09;5074482;28;20072;-49
2023/03/17 04:19:03;;;;;;;7.68;3.83;;;;;;;3.89;100.00;100634.44;5073303;28;20032;-52
2023/03/17 04:21:33;;;;;;;10.98;4.43;;;;;;;3.91;100.00;100629.16;5070575;28;20534;-50
2023/03/17 04:24:01;;;;;;;10.32;4.20;;;;;;;3.87;100.00;100636.25;5072112;28;20043;-53
2023/03/17 04:26:30;;;;;;;6.95;3.78;;;;;;;3.85;100.00;100650.25;5069834;28;20055;-49
2023/03/17 04:28:58;;;;;;;7.47;4.00;;;;;;;3.85;100.00;100648.47;5069954;28;20047;-50
2023/03/17 04:31:27;;;;;;;7.63;4.07;;;;;;;3.83;100.00;100646.84;5072166;28;20053;-52
2023/03/17 04:33:55;;;;;;;7.53;4.05;;;;;;;3.79;100.00;100650.47;5069885;28;20086;-51
2023/03/17 04:36:24;;;;;;;8.38;3.60;;;;;;;3.73;100.00;100635.97;5072106;28;20053;-53
2023/03/17 04:38:54;;;;;;;9.30;4.32;;;;;;;3.72;100.00;100636.84;5074126;28;20041;-51
2023/03/17 04:41:22;;;;;;;7.75;3.95;;;;;;;3.65;100.00;100627.63;5070533;28;20041;-51
2023/03/17 04:43:51;;;;;;;6.90;3.85;;;;;;;3.62;100.00;100635.53;5069345;28;20357;-48
2023/03/17 04:46:19;;;;;;;7.10;3.75;;;;;;;3.60;100.00;100647.75;5069505;28;20048;-48
2023/03/17 04:48:48;;;;;;;6.97;3.60;;;;;;;3.55;100.00;100646.16;5072207;28;20491;-50
2023/03/17 04:51:16;;;;;;;9.88;4.15;;;;;;;3.51;100.00;100647.19;5073836;28;20078;-50
2023/03/17 04:53:45;;;;;;;7.50;3.65;;;;;;;3.50;100.00;100640.28;5074285;28;20056;-49
2023/03/17 04:56:15;;;;;;;8.65;3.83;;;;;;;3.51;100.00;100642.00;5073112;28;20052;-49
2023/03/17 04:58:43;;;;;;;8.18;3.60;;;;;;;3.49;100.00;100637.75;5069200;28;20052;-49
2023/03/17 05:01:12;;;;;;;7.65;3.70;;;;;;;3.47;100.00;100639.59;5071098;28;20079;-50
2023/03/17 05:03:40;;;;;;;8.10;4.03;;;;;;;3.46;100.00;100643.91;5073523;28;20383;-49
2023/03/17 05:06:09;;;;;;;8.25;3.90;;;;;;;3.50;100.00;100644.66;5069918;28;20044;-51
2023/03/17 05:08:37;;;;;;;8.75;3.88;;;;;;;3.42;100.00;100644.13;5069236;28;20040;-49
2023/03/17 05:11:09;;;;;;;7.15;3.65;;;;;;;3.42;100.00;100649.31;5072002;28;20555;-52
2023/03/17 05:13:40;;;;;;;7.40;3.90;;;;;;;3.38;100.00;100648.56;5068895;28;20056;-51
2023/03/17 05:16:10;;;;;;;7.05;3.80;;;;;;;3.37;100.00;100649.50;5069246;28;20447;-52
2023/03/17 05:18:40;;;;;;;7.47;4.05;;;;;;;3.36;100.00;100651.22;5069529;28;20767;-50
2023/03/17 05:21:09;;;;;;;7.97;3.65;;;;;;;3.37;100.00;100644.31;5073205;28;20536;-51
2023/03/17 05:23:39;;;;;;;7.45;3.72;;;;;;;3.35;100.00;100646.09;5070991;28;20107;-51
2023/03/17 05:26:08;;;;;;;8.13;3.75;;;;;;;3.34;100.00;100639.19;5069826;28;20392;-50
2023/03/17 05:28:36;;;;;;;8.73;3.55;;;;;;;3.35;100.00;100630.50;5071042;28;20094;-51
2023/03/17 05:31:07;;;;;;;7.10;3.80;;;;;;;3.33;100.00;100634.94;5072673;28;20499;-51
2023/03/17 05:33:38;;;;;;;8.63;3.45;;;;;;;3.35;100.00;100625.31;5072917;28;20559;-50
2023/03/17 05:36:07;;;;;;;10.45;3.53;;;;;;;3.36;100.00;100622.63;5073023;28;20460;-47
2023/03/17 05:38:35;;;;;;;7.20;3.70;;;;;;;3.40;100.00;100631.19;5073001;28;20036;-49
2023/03/17 05:41:04;;;;;;;8.18;4.10;;;;;;;3.36;100.00;100632.19;5072682;28;20444;-50
2023/03/17 05:43:33;;;;;;;8.35;3.95;;;;;;;3.31;100.00;100635.00;5072645;28;20043;-52
2023/03/17 05:46:02;;;;;;;8.70;3.75;;;;;;;3.26;100.00;100623.91;5072411;28;20037;-50
2023/03/17 05:48:32;;;;;;;8.35;3.90;;;;;;;3.22;100.00;100628.38;5072629;28;20385;-51
2023/03/17 05:51:01;;;;;;;8.82;3.70;;;;;;;3.19;100.00;100625.91;5072261;28;20123;-50
2023/03/17 05:53:30;;;;;;;8.85;4.05;;;;;;;3.20;100.00;100632.78;5070043;28;20048;-51
2023/03/17 05:55:58;;;;;;;7.68;3.70;;;;;;;3.23;100.00;100631.81;5068549;28;20492;-51
2023/03/17 05:58:26;;;;;;;7.25;3.60;;;;;;;3.21;100.00;100631.88;5071596;28;20052;-49
2023/03/17 06:00:55;;;;;;;6.22;3.22;;;;;;;3.18;100.00;100632.00;5072655;28;20377;-51
2023/03/17 06:03:24;;;;;;;7.65;3.63;;;;;;;3.25;100.00;100613.59;5072560;28;20052;-49
2023/03/17 06:05:54;;;;;;;6.85;3.45;;;;;;;3.21;100.00;100618.03;5072440;28;20080;-51
2023/03/17 06:08:22;;;;;;;9.07;3.83;;;;;;;3.19;100.00;100615.50;5072450;28;20126;-50
2023/03/17 06:10:51;;;;;;;9.10;3.40;;;;;;;3.19;100.00;100620.69;5072419;28;20047;-49
2023/03/17 06:13:20;;;;;;;7.40;3.63;;;;;;;3.19;100.00;100623.28;5068378;28;20055;-51
2023/03/17 06:15:51;;;;;;;9.65;3.63;;;;;;;3.24;100.00;100617.06;5068510;28;20480;-48
2023/03/17 06:18:19;;;;;;;6.72;3.35;;;;;;;3.23;100.00;100618.81;5069630;28;20460;-49
2023/03/17 06:20:48;;;;;;;8.43;3.65;;;;;;;3.21;100.00;100623.22;5069058;28;20128;-49
2023/03/17 06:23:18;;;;;;;8.43;3.72;;;;;;;3.21;100.00;100628.44;5067648;28;20147;-48
2023/03/17 06:25:47;;;;;;;7.60;3.63;;;;;;;3.21;100.00;100623.22;5072095;28;20036;-50
2023/03/17 06:28:15;;;;;;;7.90;3.63;;;;;;;3.21;100.00;100628.44;5072203;28;20036;-48
2023/03/17 06:30:44;;;;;;;7.78;3.53;;;;;;;3.20;100.00;100625.00;5072036;28;20051;-49
2023/03/17 06:33:13;;;;;;;6.97;3.67;;;;;;;3.21;100.00;100618.88;5071733;28;20060;-51
2023/03/17 06:35:41;;;;;;;8.30;3.50;;;;;;;3.21;100.00;100621.47;5071784;28;20465;-50
2023/03/17 06:38:10;;;;;;;7.63;3.65;;;;;;;3.22;100.00;100617.97;5072029;28;20040;-51
2023/03/17 06:40:40;;;;;;;7.65;3.50;;;;;;;3.25;100.00;100619.63;5071916;28;20123;-50
2023/03/17 06:43:09;;;;;;;8.90;3.53;;;;;;;3.24;100.00;100615.31;5070202;28;20535;-50
2023/03/17 06:45:37;;;;;;;9.32;3.70;;;;;;;3.27;100.00;100619.56;5067735;28;20052;-52
2023/03/17 06:48:06;;;;;;;8.80;3.75;;;;;;;3.29;100.00;100625.56;5068149;28;20352;-51
2023/03/17 06:50:35;;;;;;;7.35;3.58;;;;;;;3.32;100.00;100622.81;5071500;28;20492;-51
2023/03/17 06:53:04;;;;;;;8.85;4.00;;;;;;;3.46;100.00;100622.28;5072017;28;20048;-51
2023/03/17 06:55:33;;;;;;;8.20;3.60;;;;;;;3.46;100.00;100630.09;5070598;28;20041;-52
2023/03/17 06:58:03;;;;;;;7.03;3.42;;;;;;;3.48;100.00;100629.13;5067798;28;20052;-50
2023/03/17 07:00:32;;;;;;;7.30;3.55;;;;;;;3.52;100.00;100625.50;5067649;28;20044;-52
2023/03/17 07:03:01;;;;;;;7.47;3.67;;;;;;;3.63;100.00;100625.06;5067246;28;20045;-50
2023/03/17 07:05:30;;;;;;;9.32;3.72;;;;;;;3.67;100.00;100626.66;5068374;28;20036;-51
2023/03/17 07:07:59;;;;;;;7.25;3.85;;;;;;;3.74;100.00;100624.66;5073736;28;20119;-51
2023/03/17 07:10:29;;;;;;;8.25;3.60;;;;;;;3.80;100.00;100616.59;5073831;28;20530;-49
2023/03/17 07:12:58;;;;;;;7.05;3.42;;;;;;;3.89;100.00;100620.59;5071713;28;20442;-51
2023/03/17 07:15:30;;;;;;;9.07;3.83;;;;;;;3.99;100.00;100628.84;5074500;28;20492;-52
2023/03/17 07:17:59;;;;;;;;;;;;;;;4.11;100.00;100630.13;5075608;28;20052;-50
2023/03/17 07:20:27;;;;;;;6.82;3.35;;;;;;;4.19;100.00;100622.81;5071974;28;20287;-49
2023/03/17 07:22:56;;;;;;;8.98;3.70;;;;;;;4.28;100.00;100626.78;5073475;28;20110;-51
2023/03/17 07:25:25;;;;;;;8.10;3.42;;;;;;;4.38;100.00;100628.94;5075398;28;20040;-50
2023/03/17 07:27:53;;;;;;;7.03;3.65;;;;;;;4.49;100.00;100630.25;5075601;28;20123;-51
2023/03/17 07:30:22;;;;;;;9.88;4.30;;;;;;;4.73;100.00;100634.38;5075328;28;20098;-50
2023/03/17 07:32:52;;;;;;;9.98;4.30;;;;;;;4.95;100.00;100633.44;5075533;28;20053;-50
2023/03/17 07:35:21;;;;;;;7.75;3.55;;;;;;;5.06;100.00;100640.78;5075654;28;20046;-49
2023/03/17 07:37:50;;;;;;;8.70;3.50;;;;;;;5.23;100.00;100627.78;5075304;28;20116;-48
2023/03/17 07:40:18;;;;;;;6.93;3.13;;;;;;;5.55;100.00;100635.88;5075095;28;20056;-52
2023/03/17 07:42:47;;;;;;;6.38;3.03;;;;;;;5.72;100.00;100642.91;5075175;28;20072;-52
2023/03/17 07:45:16;;;;;;;9.75;3.20;;;;;;;5.85;100.00;100642.28;5074859;28;20443;-52
2023/03/17 07:47:45;;;;;;;6.32;3.13;;;;;;;6.00;100.00;100633.78;5074497;28;20040;-52
2023/03/17 07:50:15;;;;;;;8.80;3.60;;;;;;;6.19;100.00;100633.69;5074997;28;20117;-51
2023/03/17 07:52:44;;;;;;;7.28;3.25;;;;;;;6.35;100.00;100635.53;5075018;28;20052;-52
2023/03/17 07:55:13;;;;;;;6.45;3.08;;;;;;;6.62;100.00;100627.22;5074967;28;20049;-52
2023/03/17 07:57:41;;;;;;;7.63;3.50;;;;;;;6.90;100.00;100629.22;5075032;28;20078;-51
2023/03/17 08:00:12;;;;;;;7.20;3.08;;;;;;;6.94;100.00;100630.75;5075027;28;20044;-53
2023/03/17 08:02:41;;;;;;;7.00;3.47;;;;;;;7.11;100.00;100619.38;5074792;28;20082;-56
2023/03/17 08:05:10;;;;;;;7.57;3.47;;;;;;;7.29;100.00;100612.28;5074679;28;20083;-49
2023/03/17 08:07:40;;;;;;;7.93;3.08;;;;;;;7.55;100.00;100610.84;5074528;28;20044;-53
2023/03/17 08:10:12;;;;;;;6.60;3.20;;;;;;;7.68;100.00;100620.63;5072512;28;20063;-50
2023/03/17 08:12:41;;;;;;;5.80;2.97;;;;;;;7.78;100.00;100616.53;5070733;28;20044;-51
2023/03/17 08:15:11;;;;;;;8.15;3.55;;;;;;;7.91;100.00;100601.00;5070132;28;20479;-52
2023/03/17 08:17:39;;;;;;;7.20;3.03;;;;;;;8.06;100.00;100596.63;5070786;28;20044;-52
2023/03/17 08:20:10;;;;;;;7.18;3.40;;;;;;;8.26;100.00;100598.91;5073235;28;20040;-52
2023/03/17 08:22:40;;;;;;;5.60;2.70;;;;;;;8.54;100.00;100591.22;5074254;28;20052;-49
2023/03/17 08:25:10;;;;;;;6.72;3.10;;;;;;;8.63;100.00;100595.91;5074569;28;20450;-50
2023/03/17 08:27:39;;;;;;;6.88;3.13;;;;;;;8.77;100.00;100592.44;5074521;28;20051;-51
2023/03/17 08:30:09;;;;;;;8.10;3.30;;;;;;;8.84;100.00;100601.59;5074608;28;20136;-52
2023/03/17 08:32:37;;;;;;;6.60;2.85;;;;;;;8.88;100.00;100603.09;5069600;28;20141;-51
2023/03/17 08:35:07;;;;;;;6.47;3.15;;;;;;;9.07;100.00;100607.22;5070037;28;20496;-51
2023/03/17 08:37:36;;;;;;;6.35;2.60;;;;;;;9.13;100.00;100617.31;5071704;28;20406;-49
2023/03/17 08:40:08;;;;;;;6.78;2.90;;;;;;;9.37;100.00;100619.34;5072323;28;20052;-50
2023/03/17 08:42:37;;;;;;;6.13;3.03;;;;;;;9.48;100.00;100617.69;5069771;28;20327;-49
2023/03/17 08:45:06;;;;;;;7.88;3.30;;;;;;;9.62;100.00;100614.16;5069369;28;20044;-49
2023/03/17 08:47:36;;;;;;;9.23;2.75;;;;;;;9.79;100.00;100607.00;5068296;28;20076;-49
2023/03/17 08:50:10;;;;;;;7.75;2.90;;;;;;;9.89;100.00;100607.22;5069870;28;20037;-50
2023/03/17 08:52:38;;;;;;;7.28;3.10;;;;;;;10.01;100.00;100609.03;5069285;28;20056;-50
2023/03/17 08:55:09;;;;;;;8.02;3.30;;;;;;;10.12;100.00;100613.59;5072698;28;20115;-52
2023/03/17 08:57:38;;;;;;;7.43;2.97;;;;;;;10.21;100.00;100609.50;5073764;28;20124;-53
2023/03/17 09:00:10;;;;;;;6.43;2.97;;;;;;;10.23;100.00;100607.63;5069261;28;20051;-54
2023/03/17 09:02:39;;;;;;;5.70;2.50;;;;;;;10.24;100.00;100604.00;5068483;28;20430;-53
2023/03/17 09:05:08;;;;;;;8.20;3.25;;;;;;;10.35;100.00;100600.69;5069281;28;20051;-50
2023/03/17 09:07:36;;;;;;;8.98;3.40;;;;;;;10.45;100.00;100596.50;5071709;28;20045;-52
2023/03/17 09:10:07;;;;;;;6.50;2.90;;;;;;;10.62;100.00;100606.72;5073580;28;20383;-50
2023/03/17 09:12:38;;;;;;;6.80;3.10;;;;;;;10.72;100.00;100606.06;5069600;28;20044;-52
2023/03/17 09:15:07;;;;;;;6.78;3.10;;;;;;;10.85;100.00;100593.72;5068592;28;20041;-52
2023/03/17 09:17:36;;;;;;;7.47;3.30;;;;;;;10.92;100.00;100600.25;5067673;28;20498;-53
2023/03/17 09:20:06;;;;;;;6.40;2.90;;;;;;;11.06;100.00;100591.38;5071682;28;20045;-53
2023/03/17 09:22:34;;;;;;;7.22;2.92;;;;;;;11.22;100.00;100608.69;5069342;28;20478;-50
2023/03/17 09:25:03;;;;;;;6.07;2.85;;;;;;;11.32;100.00;100607.94;5069291;28;20040;-52
2023/03/17 09:27:32;;;;;;;6.25;3.10;;;;;;;11.27;100.00;100594.25;5067509;28;20040;-54
2023/03/17 09:30:02;;;;;;;6.53;2.90;;;;;;;11.48;100.00;100606.84;5070340;28;20132;-53
2023/03/17 09:32:31;;;;;;;7.45;3.20;;;;;;;11.58;100.00;100607.84;5067283;28;20056;-49
2023/03/17 09:34:59;;;;;;;6.75;3.20;;;;;;;11.49;100.00;100608.50;5068637;28;20494;-52
2023/03/17 09:37:28;;;;;;;6.57;3.13;;;;;;;11.58;100.00;100614.91;5068254;28;20059;-51
2023/03/17 09:39:58;;;;;;;7.15;3.08;;;;;;;11.45;100.00;100610.53;5068741;28;20049;-50
2023/03/17 09:42:42;;;;;;;6.07;2.92;;;;;;;11.57;100.00;100611.41;5073150;28;20411;-53
2023/03/17 09:45:23;;;;;;;9.10;3.40;;;;;;;11.72;100.00;100609.44;5069856;28;20042;-52
2023/03/17 09:48:29;;;;;;;8.88;3.42;;;;;;;12.05;100.00;100597.38;5068300;28;20178;-52
2023/03/17 09:51:01;;;;;;;6.38;3.22;;;;;;;12.08;100.00;100596.31;5064231;28;20483;-52
2023/03/17 09:53:34;;;;;;;7.60;3.10;;;;;;;12.28;100.00;100598.28;5069550;28;20454;-52
2023/03/17 09:56:07;;;;;;;7.50;3.03;;;;;;;12.47;99.01;100605.63;5068387;28;20037;-52
2023/03/17 09:58:37;;;;;;;7.53;3.53;;;;;;;12.55;99.86;100601.56;5072664;28;20041;-51
2023/03/17 10:01:11;;;;;;;7.38;3.22;;;;;;;12.58;100.00;100588.97;5072843;28;20508;-51
2023/03/17 10:03:40;;;;;;;9.45;3.30;;;;;;;12.69;99.41;100588.13;5072622;28;20089;-50
2023/03/17 10:06:25;;;;;;;7.80;3.15;;;;;;;12.67;97.03;100597.97;5072358;28;20119;-51
2023/03/17 10:08:59;;;;;;;10.05;3.60;;;;;;;12.76;97.76;100604.31;5072531;28;20111;-51
2023/03/17 10:11:38;;;;;;;7.32;3.40;;;;;;;12.92;97.19;100612.72;5072636;28;20072;-50
2023/03/17 10:14:18;;;;;;;7.00;3.50;;;;;;;13.12;96.57;100602.41;5069625;28;20415;-51
2023/03/17 10:16:54;;;;;;;8.10;3.78;;;;;;;13.26;94.92;100607.38;5066112;28;20048;-52
2023/03/17 10:19:29;;;;;;;7.90;3.70;;;;;;;13.28;94.39;100600.19;5068337;28;20050;-47
2023/03/17 10:22:01;;;;;;;8.48;3.88;;;;;;;13.22;93.71;100598.03;5068208;28;20040;-47
2023/03/17 10:24:32;;;;;;;7.03;3.53;;;;;;;13.26;94.14;100599.47;5069639;28;20059;-50
2023/03/17 10:27:06;;;;;;;6.75;3.50;;;;;;;13.38;94.68;100602.13;5068790;28;20116;-49
2023/03/17 10:29:34;;;;;;;6.63;3.40;;;;;;;13.45;95.19;100595.38;5068303;28;20415;-50
2023/03/17 10:32:05;;;;;;;6.60;3.30;;;;;;;13.73;93.47;100593.13;5066049;28;20140;-49
2023/03/17 10:34:36;;;;;;;5.97;3.35;;;;;;;13.79;93.63;100592.63;5068580;28;20091;-51
2023/03/17 10:37:07;;;;;;;7.82;3.58;;;;;;;14.12;93.35;100596.06;5067740;28;20044;-51
2023/03/17 10:39:45;;;;;;;9.30;4.40;;;;;;;14.12;91.06;100596.06;5067677;28;20116;-50
2023/03/17 10:42:21;;;;;;;8.90;4.25;;;;;;;14.07;91.75;100612.31;5067311;28;20401;-51
2023/03/17 10:44:53;;;;;;;9.27;4.38;;;;;;;14.35;89.83;100609.97;5068015;28;20052;-52
2023/03/17 10:47:31;;;;;;;9.25;4.35;;;;;;;14.44;91.45;100616.28;5070208;28;20044;-51
2023/03/17 10:50:04;;;;;;;10.10;4.57;;;;;;;14.63;88.98;100616.44;5068534;28;20048;-52
2023/03/17 10:52:39;;;;;;;9.73;4.18;;;;;;;14.73;88.25;100618.28;5067660;28;20044;-52
2023/03/17 10:55:15;;;;;;;9.30;4.40;;;;;;;14.78;87.92;100610.78;5070639;28;20450;-51
2023/03/17 10:57:52;;;;;;;11.45;4.82;;;;;;;14.90;86.01;100612.34;5072022;28;20044;-51
2023/03/17 11:00:22;;;;;;;11.68;4.25;;;;;;;15.12;88.88;100608.69;5068852;28;20049;-51
2023/03/17 11:02:57;;;;;;;7.22;3.67;;;;;;;15.34;89.40;100610.25;5067057;28;20123;-50
2023/03/17 11:05:27;;;;;;;8.63;3.90;;;;;;;15.51;84.78;100600.78;5071988;28;20044;-50
2023/03/17 11:08:09;;;;;;;8.50;3.45;;;;;;;15.64;84.32;100599.72;5072038;28;20045;-49
2023/03/17 11:10:39;;;;;;;8.48;4.03;;;;;;;15.42;82.80;100603.44;5071923;28;20499;-53
2023/03/17 11:13:09;;;;;;;8.32;3.75;;;;;;;15.64;84.10;100602.34;5071757;28;20110;-52
2023/03/17 11:15:41;;;;;;;6.80;3.67;;;;;;;15.70;82.67;100602.59;5070900;28;20051;-50
2023/03/17 11:18:18;;;;;;;8.30;3.40;;;;;;;15.47;83.47;100603.84;5066150;28;20056;-51
2023/03/17 11:20:52;;;;;;;8.98;3.70;;;;;;;15.45;81.34;100598.69;5067397;28;20075;-52
2023/03/17 11:23:46;;;;;;;7.40;3.53;;;;;;;15.75;82.36;100604.00;5071033;28;20078;-51
2023/03/17 11:26:41;;;;;;;8.07;3.60;;;;;;;15.89;81.63;100603.63;5071654;28;20123;-50
2023/03/17 11:29:22;;;;;;;9.05;3.60;;;;;;;15.60;82.37;100616.84;5071556;28;20037;-50
2023/03/17 11:31:58;;;;;;;9.77;4.30;;;;;;;15.41;83.05;100617.69;5071329;28;20048;-49
2023/03/17 11:34:40;;;;;;;8.25;4.30;;;;;;;15.71;83.86;100619.38;5070808;28;20044;-48
2023/03/17 11:37:21;;;;;;;11.63;3.83;;;;;;;15.67;82.42;100616.16;5067821;28;20495;-50
2023/03/17 11:39:58;;;;;;;8.25;4.00;;;;;;;15.76;83.78;100606.53;5067475;28;20217;-53